sensor_id;sensor_type;location;lat;lon;timestamp;pressure;altitude;pressure_sealevel;temperature;humidity
1077;BME280;64114;48.726;9.370;2023-02-13T00:00:49;100689.94;;;2.97;94.20
1077;BME280;64114;48.726;9.370;2023-02-13T00:03:17;100694.38;;;2.76;96.07
1077;BME280;64114;48.726;9.370;2023-02-13T00:05:46;100690.44;;;2.67;95.39
1077;BME280;64114;48.726;9.370;2023-02-13T00:08:14;100685.06;;;2.25;99.14
1077;BME280;64114;48.726;9.370;2023-02-13T00:10:42;100685.22;;;2.40;99.47
1077;BME280;64114;48.726;9.370;2023-02-13T00:13:10;100685.00;;;2.49;99.66
1077;BME280;64114;48.726;9.370;2023-02-13T00:15:38;100692.31;;;2.33;98.24
1077;BME280;64114;48.726;9.370;2023-02-13T00:18:07;100689.13;;;2.11;100.00
1077;BME280;64114;48.726;9.370;2023-02-13T00:20:36;100684.25;;;2.38;99.47
1077;BME280;64114;48.726;9.370;2023-02-13T00:23:03;100691.75;;;2.25;98.78
1077;BME280;64114;48.726;9.370;2023-02-13T00:25:31;100685.44;;;2.43;98.86
1077;BME280;64114;48.726;9.370;2023-02-13T00:27:59;100686.03;;;2.27;98.60
1077;BME280;64114;48.726;9.370;2023-02-13T00:30:27;100688.00;;;2.20;99.96
1077;BME280;64114;48.726;9.370;2023-02-13T00:32:55;100691.97;;;2.40;100.00
1077;BME280;64114;48.726;9.370;2023-02-13T00:35:24;100684.09;;;2.61;96.03
1077;BME280;64114;48.726;9.370;2023-02-13T00:37:52;100688.75;;;2.42;96.64
1077;BME280;64114;48.726;9.370;2023-02-13T00:40:23;100670.25;;;2.43;95.61
1077;BME280;64114;48.726;9.370;2023-02-13T00:42:50;100684.59;;;2.43;96.24
1077;BME280;64114;48.726;9.370;2023-02-13T00:45:18;100680.88;;;2.14;98.89
1077;BME280;64114;48.726;9.370;2023-02-13T00:47:46;100690.34;;;2.05;100.00
1077;BME280;64114;48.726;9.370;2023-02-13T00:50:14;100685.97;;;1.78;100.00
1077;BME280;64114;48.726;9.370;2023-02-13T00:52:43;100680.88;;;1.90;100.00
1077;BME280;64114;48.726;9.370;2023-02-13T00:55:12;100684.84;;;2.22;98.86
1077;BME280;64114;48.726;9.370;2023-02-13T00:57:39;100684.03;;;2.35;96.65
1077;BME280;64114;48.726;9.370;2023-02-13T01:00:11;100691.44;;;2.08;98.30
1077;BME280;64114;48.726;9.370;2023-02-13T01:02:40;100689.25;;;1.77;100.00
1077;BME280;64114;48.726;9.370;2023-02-13T01:05:08;100684.75;;;1.73;100.00
1077;BME280;64114;48.726;9.370;2023-02-13T01:07:35;100687.72;;;1.79;100.00
1077;BME280;64114;48.726;9.370;2023-02-13T01:10:06;100685.19;;;1.91;99.89
1077;BME280;64114;48.726;9.370;2023-02-13T01:12:34;100690.03;;;1.76;100.00
1077;BME280;64114;48.726;9.370;2023-02-13T01:15:06;100678.44;;;1.56;100.00
1077;BME280;64114;48.726;9.370;2023-02-13T01:17:33;100679.22;;;1.55;100.00
1077;BME280;64114;48.726;9.370;2023-02-13T01:20:01;100688.13;;;1.74;100.00
1077;BME280;64114;48.726;9.370;2023-02-13T01:22:29;100685.84;;;1.77;100.00
1077;BME280;64114;48.726;9.370;2023-02-13T01:24:58;100682.66;;;1.91;97.39
1077;BME280;64114;48.726;9.370;2023-02-13T01:27:31;100682.09;;;2.19;96.34
1077;BME280;64114;48.726;9.370;2023-02-13T01:29:59;100686.25;;;1.47;98.86
1077;BME280;64114;48.726;9.370;2023-02-13T01:32:28;100687.97;;;1.36;100.00
1077;BME280;64114;48.726;9.370;2023-02-13T01:34:56;100689.19;;;1.42;100.00
1077;BME280;64114;48.726;9.370;2023-02-13T01:37:24;100680.34;;;1.94;99.31
1077;BME280;64114;48.726;9.370;2023-02-13T01:39:52;100680.25;;;1.69;99.44
1077;BME280;64114;48.726;9.370;2023-02-13T01:42:25;100686.56;;;1.52;100.00
1077;BME280;64114;48.726;9.370;2023-02-13T01:44:55;100677.13;;;1.49;100.00
1077;BME280;64114;48.726;9.370;2023-02-13T01:47:26;100688.50;;;1.78;100.00
1077;BME280;64114;48.726;9.370;2023-02-13T01:50:02;100674.28;;;1.92;97.50
1077;BME280;64114;48.726;9.370;2023-02-13T01:52:32;100674.28;;;2.04;97.27
1077;BME280;64114;48.726;9.370;2023-02-13T01:55:00;100672.75;;;1.70;99.57
1077;BME280;64114;48.726;9.370;2023-02-13T01:57:29;100659.75;;;1.42;100.00
1077;BME280;64114;48.726;9.370;2023-02-13T02:00:02;100679.16;;;1.31;100.00
1077;BME280;64114;48.726;9.370;2023-02-13T02:02:44;100675.34;;;1.36;100.00
1077;BME280;64114;48.726;9.370;2023-02-13T02:05:18;100671.75;;;1.57;100.00
1077;BME280;64114;48.726;9.370;2023-02-13T02:07:49;100676.38;;;1.50;100.00
1077;BME280;64114;48.726;9.370;2023-02-13T02:10:21;100679.16;;;1.31;100.00
1077;BME280;64114;48.726;9.370;2023-02-13T02:12:52;100677.09;;;1.25;100.00
1077;BME280;64114;48.726;9.370;2023-02-13T02:15:24;100673.19;;;1.19;100.00
1077;BME280;64114;48.726;9.370;2023-02-13T02:17:52;100673.03;;;1.28;100.00
1077;BME280;64114;48.726;9.370;2023-02-13T02:20:28;100668.44;;;1.46;100.00
1077;BME280;64114;48.726;9.370;2023-02-13T02:23:30;100664.63;;;1.63;97.38
1077;BME280;64114;48.726;9.370;2023-02-13T02:26:30;100668.28;;;1.32;99.49
1077;BME280;64114;48.726;9.370;2023-02-13T02:29:28;100666.34;;;1.40;99.80
1077;BME280;64114;48.726;9.370;2023-02-13T02:32:20;100669.03;;;1.19;100.00
1077;BME280;64114;48.726;9.370;2023-02-13T02:34:55;100681.81;;;1.33;100.00
1077;BME280;64114;48.726;9.370;2023-02-13T02:37:38;100671.91;;;1.24;100.00
1077;BME280;64114;48.726;9.370;2023-02-13T02:40:18;100670.44;;;1.16;100.00
1077;BME280;64114;48.726;9.370;2023-02-13T02:42:59;100671.22;;;1.15;100.00
1077;BME280;64114;48.726;9.370;2023-02-13T02:45:37;100680.84;;;1.08;100.00
1077;BME280;64114;48.726;9.370;2023-02-13T02:48:16;100678.78;;;1.03;100.00
1077;BME280;64114;48.726;9.370;2023-02-13T02:51:11;100672.59;;;0.99;100.00
1077;BME280;64114;48.726;9.370;2023-02-13T02:53:50;100679.16;;;0.97;100.00
1077;BME280;64114;48.726;9.370;2023-02-13T02:56:24;100681.09;;;1.11;100.00
1077;BME280;64114;48.726;9.370;2023-02-13T02:58:56;100680.75;;;1.41;98.36
1077;BME280;64114;48.726;9.370;2023-02-13T03:01:46;100676.00;;;1.00;99.11
1077;BME280;64114;48.726;9.370;2023-02-13T03:04:37;100683.88;;;0.92;100.00
1077;BME280;64114;48.726;9.370;2023-02-13T03:07:26;100678.31;;;0.96;100.00
1077;BME280;64114;48.726;9.370;2023-02-13T03:09:57;100687.81;;;0.89;100.00
1077;BME280;64114;48.726;9.370;2023-02-13T03:12:46;100676.38;;;0.82;100.00
1077;BME280;64114;48.726;9.370;2023-02-13T03:15:37;100689.56;;;0.90;100.00
1077;BME280;64114;48.726;9.370;2023-02-13T03:18:26;100682.16;;;1.03;99.86
1077;BME280;64114;48.726;9.370;2023-02-13T03:21:17;100693.63;;;0.88;100.00
1077;BME280;64114;48.726;9.370;2023-02-13T03:24:13;100687.34;;;0.83;100.00
1077;BME280;64114;48.726;9.370;2023-02-13T03:26:49;100693.16;;;0.81;100.00
1077;BME280;64114;48.726;9.370;2023-02-13T03:29:30;100698.50;;;0.74;100.00
1077;BME280;64114;48.726;9.370;2023-02-13T03:32:26;100705.59;;;0.68;100.00
1077;BME280;64114;48.726;9.370;2023-02-13T03:35:03;100705.16;;;0.62;100.00
1077;BME280;64114;48.726;9.370;2023-02-13T03:37:57;100704.16;;;0.60;100.00
1077;BME280;64114;48.726;9.370;2023-02-13T03:40:35;100706.06;;;0.52;100.00
1077;BME280;64114;48.726;9.370;2023-02-13T03:43:25;100652.50;;;0.12;100.00
1077;BME280;64114;48.726;9.370;2023-02-13T03:45:54;100714.38;;;0.61;100.00
1077;BME280;64114;48.726;9.370;2023-02-13T03:48:25;100723.34;;;0.58;100.00
1077;BME280;64114;48.726;9.370;2023-02-13T03:51:16;100718.22;;;0.68;100.00
1077;BME280;64114;48.726;9.370;2023-02-13T03:53:49;100721.16;;;0.62;100.00
1077;BME280;64114;48.726;9.370;2023-02-13T03:56:20;100730.16;;;0.59;100.00
1077;BME280;64114;48.726;9.370;2023-02-13T03:59:07;100720.47;;;0.53;100.00
1077;BME280;64114;48.726;9.370;2023-02-13T04:01:47;100726.88;;;0.60;100.00
1077;BME280;64114;48.726;9.370;2023-02-13T04:04:22;100721.13;;;0.73;100.00
1077;BME280;64114;48.726;9.370;2023-02-13T04:06:55;100729.13;;;0.67;100.00
1077;BME280;64114;48.726;9.370;2023-02-13T04:09:27;100654.00;;;0.20;100.00
1077;BME280;64114;48.726;9.370;2023-02-13T04:12:03;100731.13;;;0.93;99.98
1077;BME280;64114;48.726;9.370;2023-02-13T04:14:35;100736.50;;;0.98;100.00
1077;BME280;64114;48.726;9.370;2023-02-13T04:17:09;100742.78;;;1.25;97.61
1077;BME280;64114;48.726;9.370;2023-02-13T04:19:39;100738.09;;;1.08;96.76
1077;BME280;64114;48.726;9.370;2023-02-13T04:22:10;100738.78;;;0.95;98.85
1077;BME280;64114;48.726;9.370;2023-02-13T04:24:40;100740.56;;;0.96;99.13
1077;BME280;64114;48.726;9.370;2023-02-13T04:27:10;100742.94;;;0.72;100.00
1077;BME280;64114;48.726;9.370;2023-02-13T04:29:40;100747.94;;;0.60;100.00
1077;BME280;64114;48.726;9.370;2023-02-13T04:32:09;100744.31;;;0.57;100.00
1077;BME280;64114;48.726;9.370;2023-02-13T04:34:37;100738.88;;;0.52;100.00
1077;BME280;64114;48.726;9.370;2023-02-13T04:37:05;100742.59;;;0.45;100.00
1077;BME280;64114;48.726;9.370;2023-02-13T04:39:32;100743.03;;;0.62;100.00
1077;BME280;64114;48.726;9.370;2023-02-13T04:42:02;100738.31;;;0.44;100.00
1077;BME280;64114;48.726;9.370;2023-02-13T04:44:30;100738.31;;;0.44;100.00
1077;BME280;64114;48.726;9.370;2023-02-13T04:46:58;100737.19;;;0.30;100.00
1077;BME280;64114;48.726;9.370;2023-02-13T04:49:26;100734.44;;;0.27;100.00
1077;BME280;64114;48.726;9.370;2023-02-13T04:51:54;100730.41;;;0.19;100.00
1077;BME280;64114;48.726;9.370;2023-02-13T04:54:22;100733.09;;;0.20;100.00
1077;BME280;64114;48.726;9.370;2023-02-13T04:56:50;100729.94;;;0.13;100.00
1077;BME280;64114;48.726;9.370;2023-02-13T04:59:19;100737.03;;;0.49;100.00
1077;BME280;64114;48.726;9.370;2023-02-13T05:01:46;100695.78;;;0.06;100.00
1077;BME280;64114;48.726;9.370;2023-02-13T05:04:14;100746.25;;;0.39;100.00
1077;BME280;64114;48.726;9.370;2023-02-13T05:06:43;100747.41;;;0.42;100.00
1077;BME280;64114;48.726;9.370;2023-02-13T05:09:11;100750.41;;;0.71;100.00
1077;BME280;64114;48.726;9.370;2023-02-13T05:11:38;100748.16;;;0.41;100.00
1077;BME280;64114;48.726;9.370;2023-02-13T05:14:06;100747.66;;;0.35;100.00
1077;BME280;64114;48.726;9.370;2023-02-13T05:16:37;100746.69;;;0.22;100.00
1077;BME280;64114;48.726;9.370;2023-02-13T05:19:05;100744.25;;;0.34;100.00
1077;BME280;64114;48.726;9.370;2023-02-13T05:21:33;100744.78;;;0.30;100.00
1077;BME280;64114;48.726;9.370;2023-02-13T05:24:19;100748.06;;;0.29;100.00
1077;BME280;64114;48.726;9.370;2023-02-13T05:26:47;100750.06;;;0.33;100.00
1077;BME280;64114;48.726;9.370;2023-02-13T05:29:15;100745.97;;;0.13;100.00
1077;BME280;64114;48.726;9.370;2023-02-13T05:31:49;100753.03;;;0.07;100.00
1077;BME280;64114;48.726;9.370;2023-02-13T05:34:17;100753.81;;;-0.04;100.00
1077;BME280;64114;48.726;9.370;2023-02-13T05:36:46;100761.50;;;-0.03;100.00
1077;BME280;64114;48.726;9.370;2023-02-13T05:39:14;100758.13;;;-0.14;100.00
1077;BME280;64114;48.726;9.370;2023-02-13T05:41:43;100753.50;;;0.24;100.00
1077;BME280;64114;48.726;9.370;2023-02-13T05:44:11;100747.34;;;0.10;100.00
1077;BME280;64114;48.726;9.370;2023-02-13T05:46:40;100745.59;;;-0.02;100.00
1077;BME280;64114;48.726;9.370;2023-02-13T05:49:13;100749.25;;;0.12;100.00
1077;BME280;64114;48.726;9.370;2023-02-13T05:51:41;100752.69;;;0.45;100.00
1077;BME280;64114;48.726;9.370;2023-02-13T05:54:09;100749.09;;;0.21;99.39
1077;BME280;64114;48.726;9.370;2023-02-13T05:56:37;100741.72;;;0.02;100.00
1077;BME280;64114;48.726;9.370;2023-02-13T05:59:06;100752.03;;;0.05;100.00
1077;BME280;64114;48.726;9.370;2023-02-13T06:01:34;100754.28;;;0.12;100.00
1077;BME280;64114;48.726;9.370;2023-02-13T06:04:03;100680.88;;;-0.55;100.00
1077;BME280;64114;48.726;9.370;2023-02-13T06:06:33;100739.94;;;0.01;100.00
1077;BME280;64114;48.726;9.370;2023-02-13T06:09:01;100747.06;;;0.17;100.00
1077;BME280;64114;48.726;9.370;2023-02-13T06:11:29;100743.72;;;-0.04;100.00
1077;BME280;64114;48.726;9.370;2023-02-13T06:13:57;100745.25;;;-0.07;100.00
1077;BME280;64114;48.726;9.370;2023-02-13T06:16:42;100754.94;;;-0.11;100.00
1077;BME280;64114;48.726;9.370;2023-02-13T06:19:10;100754.19;;;-0.10;100.00
1077;BME280;64114;48.726;9.370;2023-02-13T06:21:39;100753.69;;;-0.16;100.00
1077;BME280;64114;48.726;9.370;2023-02-13T06:24:08;100750.53;;;0.07;100.00
1077;BME280;64114;48.726;9.370;2023-02-13T06:26:35;100752.19;;;-0.35;100.00
1077;BME280;64114;48.726;9.370;2023-02-13T06:29:03;100758.13;;;-0.24;100.00
1077;BME280;64114;48.726;9.370;2023-02-13T06:31:32;100765.28;;;-0.18;100.00
1077;BME280;64114;48.726;9.370;2023-02-13T06:34:00;100759.00;;;-0.44;100.00
1077;BME280;64114;48.726;9.370;2023-02-13T06:36:28;100769.34;;;-0.41;100.00
1077;BME280;64114;48.726;9.370;2023-02-13T06:38:57;100769.59;;;-0.28;100.00
1077;BME280;64114;48.726;9.370;2023-02-13T06:41:25;100778.53;;;-0.11;100.00
1077;BME280;64114;48.726;9.370;2023-02-13T06:43:53;100768.53;;;0.12;100.00
1077;BME280;64114;48.726;9.370;2023-02-13T06:46:20;100772.94;;;0.25;100.00
1077;BME280;64114;48.726;9.370;2023-02-13T06:48:49;100773.91;;;0.37;100.00
1077;BME280;64114;48.726;9.370;2023-02-13T06:51:16;100762.84;;;0.25;100.00
1077;BME280;64114;48.726;9.370;2023-02-13T06:53:44;100749.28;;;0.02;100.00
1077;BME280;64114;48.726;9.370;2023-02-13T06:56:14;100780.47;;;0.35;100.00
1077;BME280;64114;48.726;9.370;2023-02-13T06:58:42;100776.97;;;0.22;100.00
1077;BME280;64114;48.726;9.370;2023-02-13T07:01:10;100792.97;;;0.23;100.00
1077;BME280;64114;48.726;9.370;2023-02-13T07:03:37;100776.69;;;0.30;100.00
1077;BME280;64114;48.726;9.370;2023-02-13T07:06:07;100775.28;;;0.33;100.00
1077;BME280;64114;48.726;9.370;2023-02-13T07:08:35;100777.72;;;0.21;100.00
1077;BME280;64114;48.726;9.370;2023-02-13T07:11:03;100762.09;;;0.15;100.00
1077;BME280;64114;48.726;9.370;2023-02-13T07:13:33;100785.38;;;0.33;100.00
1077;BME280;64114;48.726;9.370;2023-02-13T07:16:01;100790.25;;;0.52;100.00
1077;BME280;64114;48.726;9.370;2023-02-13T07:18:29;100787.47;;;0.60;100.00
1077;BME280;64114;48.726;9.370;2023-02-13T07:20:57;100789.13;;;0.49;100.00
1077;BME280;64114;48.726;9.370;2023-02-13T07:23:25;100771.63;;;0.40;100.00
1077;BME280;64114;48.726;9.370;2023-02-13T07:25:53;100780.22;;;0.64;100.00
1077;BME280;64114;48.726;9.370;2023-02-13T07:28:20;100792.69;;;0.73;100.00
1077;BME280;64114;48.726;9.370;2023-02-13T07:30:50;100791.78;;;0.83;100.00
1077;BME280;64114;48.726;9.370;2023-02-13T07:33:21;100803.78;;;1.08;100.00
1077;BME280;64114;48.726;9.370;2023-02-13T07:35:51;100800.66;;;1.22;100.00
1077;BME280;64114;48.726;9.370;2023-02-13T07:38:19;100787.78;;;1.19;100.00
1077;BME280;64114;48.726;9.370;2023-02-13T07:40:47;100796.38;;;1.21;100.00
1077;BME280;64114;48.726;9.370;2023-02-13T07:43:15;100792.78;;;1.30;100.00
1077;BME280;64114;48.726;9.370;2023-02-13T07:45:43;100800.88;;;1.48;100.00
1077;BME280;64114;48.726;9.370;2023-02-13T07:48:14;100797.09;;;1.43;100.00
1077;BME280;64114;48.726;9.370;2023-02-13T07:50:44;100785.75;;;1.25;100.00
1077;BME280;64114;48.726;9.370;2023-02-13T07:53:12;100795.03;;;1.49;100.00
1077;BME280;64114;48.726;9.370;2023-02-13T07:55:41;100806.13;;;1.73;100.00
1077;BME280;64114;48.726;9.370;2023-02-13T07:58:09;100731.84;;;1.49;98.69
1077;BME280;64114;48.726;9.370;2023-02-13T08:00:37;100802.44;;;2.04;98.27
1077;BME280;64114;48.726;9.370;2023-02-13T08:03:05;100799.41;;;1.74;99.36
1077;BME280;64114;48.726;9.370;2023-02-13T08:05:36;100794.41;;;1.86;99.54
1077;BME280;64114;48.726;9.370;2023-02-13T08:08:05;100800.94;;;2.29;98.22
1077;BME280;64114;48.726;9.370;2023-02-13T08:10:33;100798.38;;;2.18;98.45
1077;BME280;64114;48.726;9.370;2023-02-13T08:13:18;100797.38;;;2.16;99.23
1077;BME280;64114;48.726;9.370;2023-02-13T08:15:46;100790.34;;;2.47;98.23
1077;BME280;64114;48.726;9.370;2023-02-13T08:18:15;100796.19;;;2.34;97.96
1077;BME280;64114;48.726;9.370;2023-02-13T08:20:47;100774.19;;;2.21;98.27
1077;BME280;64114;48.726;9.370;2023-02-13T08:23:15;100808.19;;;2.49;98.08
1077;BME280;64114;48.726;9.370;2023-02-13T08:25:43;100802.78;;;2.56;98.13
1077;BME280;64114;48.726;9.370;2023-02-13T08:28:13;100801.47;;;2.73;96.92
1077;BME280;64114;48.726;9.370;2023-02-13T08:30:41;100773.72;;;2.63;97.14
1077;BME280;64114;48.726;9.370;2023-02-13T08:33:09;100784.69;;;2.87;95.30
1077;BME280;64114;48.726;9.370;2023-02-13T08:35:37;100799.09;;;3.00;95.31
1077;BME280;64114;48.726;9.370;2023-02-13T08:38:08;100790.03;;;3.03;95.53
1077;BME280;64114;48.726;9.370;2023-02-13T08:40:36;100770.59;;;2.91;95.90
1077;BME280;64114;48.726;9.370;2023-02-13T08:43:05;100783.75;;;3.10;95.81
1077;BME280;64114;48.726;9.370;2023-02-13T08:45:34;100785.78;;;3.28;95.02
1077;BME280;64114;48.726;9.370;2023-02-13T08:48:04;100793.13;;;3.37;94.30
1077;BME280;64114;48.726;9.370;2023-02-13T08:50:32;100780.50;;;3.50;93.50
1077;BME280;64114;48.726;9.370;2023-02-13T08:53:03;100777.91;;;3.75;92.70
1077;BME280;64114;48.726;9.370;2023-02-13T08:55:33;100761.91;;;3.76;91.87
1077;BME280;64114;48.726;9.370;2023-02-13T08:58:01;100770.44;;;3.90;92.23
1077;BME280;64114;48.726;9.370;2023-02-13T09:00:29;100771.44;;;3.93;91.99
1077;BME280;64114;48.726;9.370;2023-02-13T09:02:59;100758.34;;;3.86;92.38
1077;BME280;64114;48.726;9.370;2023-02-13T09:05:29;100772.38;;;3.81;92.22
1077;BME280;64114;48.726;9.370;2023-02-13T09:07:59;100755.28;;;3.79;92.06
1077;BME280;64114;48.726;9.370;2023-02-13T09:10:28;100775.00;;;3.83;92.12
1077;BME280;64114;48.726;9.370;2023-02-13T09:13:00;100773.75;;;3.89;92.39
1077;BME280;64114;48.726;9.370;2023-02-13T09:15:28;100773.13;;;3.67;93.56
1077;BME280;64114;48.726;9.370;2023-02-13T09:17:56;100774.72;;;3.53;94.97
1077;BME280;64114;48.726;9.370;2023-02-13T09:20:27;100761.63;;;3.46;96.00
1077;BME280;64114;48.726;9.370;2023-02-13T09:22:55;100771.69;;;3.45;96.51
1077;BME280;64114;48.726;9.370;2023-02-13T09:25:24;100761.50;;;3.70;95.42
1077;BME280;64114;48.726;9.370;2023-02-13T09:27:51;100776.94;;;3.73;95.37
1077;BME280;64114;48.726;9.370;2023-02-13T09:30:21;100773.22;;;3.68;96.30
1077;BME280;64114;48.726;9.370;2023-02-13T09:32:52;100768.78;;;3.91;95.68
1077;BME280;64114;48.726;9.370;2023-02-13T09:35:22;100770.38;;;4.16;94.78
1077;BME280;64114;48.726;9.370;2023-02-13T09:37:49;100771.72;;;4.24;95.06
1077;BME280;64114;48.726;9.370;2023-02-13T09:40:21;100772.25;;;4.32;94.53
1077;BME280;64114;48.726;9.370;2023-02-13T09:42:51;100765.38;;;4.58;93.56
1077;BME280;64114;48.726;9.370;2023-02-13T09:45:21;100769.75;;;4.60;92.96
1077;BME280;64114;48.726;9.370;2023-02-13T09:47:50;100772.69;;;4.53;93.75
1077;BME280;64114;48.726;9.370;2023-02-13T09:50:21;100768.31;;;4.64;93.17
1077;BME280;64114;48.726;9.370;2023-02-13T09:52:52;100772.31;;;5.02;91.30
1077;BME280;64114;48.726;9.370;2023-02-13T09:55:23;100774.38;;;5.23;90.30
1077;BME280;64114;48.726;9.370;2023-02-13T09:57:58;100768.56;;;5.39;88.91
1077;BME280;64114;48.726;9.370;2023-02-13T10:00:34;100775.41;;;5.40;88.61
1077;BME280;64114;48.726;9.370;2023-02-13T10:03:17;100771.47;;;5.45;88.74
1077;BME280;64114;48.726;9.370;2023-02-13T10:05:55;100773.56;;;5.37;87.36
1077;BME280;64114;48.726;9.370;2023-02-13T10:08:42;100766.09;;;5.41;87.69
1077;BME280;64114;48.726;9.370;2023-02-13T10:11:29;100758.47;;;5.41;87.00
1077;BME280;64114;48.726;9.370;2023-02-13T10:14:07;100770.25;;;5.10;88.88
1077;BME280;64114;48.726;9.370;2023-02-13T10:16:42;100776.78;;;5.06;89.48
1077;BME280;64114;48.726;9.370;2023-02-13T10:19:18;100771.03;;;5.09;89.72
1077;BME280;64114;48.726;9.370;2023-02-13T10:21:55;100773.22;;;5.18;88.54
1077;BME280;64114;48.726;9.370;2023-02-13T10:24:30;100768.97;;;5.03;89.41
1077;BME280;64114;48.726;9.370;2023-02-13T10:27:02;100772.50;;;5.05;90.64
1077;BME280;64114;48.726;9.370;2023-02-13T10:29:37;100772.13;;;4.99;90.11
1077;BME280;64114;48.726;9.370;2023-02-13T10:32:31;100771.78;;;4.79;90.96
1077;BME280;64114;48.726;9.370;2023-02-13T10:35:15;100754.88;;;4.80;90.83
1077;BME280;64114;48.726;9.370;2023-02-13T10:37:46;100763.84;;;4.88;91.09
1077;BME280;64114;48.726;9.370;2023-02-13T10:40:17;100760.38;;;5.01;90.19
1077;BME280;64114;48.726;9.370;2023-02-13T10:42:51;100754.31;;;4.99;90.64
1077;BME280;64114;48.726;9.370;2023-02-13T10:45:38;100750.66;;;5.37;89.07
1077;BME280;64114;48.726;9.370;2023-02-13T10:48:19;100748.22;;;5.54;88.06
1077;BME280;64114;48.726;9.370;2023-02-13T10:50:59;100749.50;;;5.32;88.83
1077;BME280;64114;48.726;9.370;2023-02-13T10:53:40;100731.81;;;5.34;89.81
1077;BME280;64114;48.726;9.370;2023-02-13T10:56:32;100738.84;;;5.53;89.74
1077;BME280;64114;48.726;9.370;2023-02-13T10:59:13;100723.59;;;5.83;88.48
1077;BME280;64114;48.726;9.370;2023-02-13T11:01:50;100725.22;;;6.12;88.32
1077;BME280;64114;48.726;9.370;2023-02-13T11:04:22;100709.16;;;6.45;85.58
1077;BME280;64114;48.726;9.370;2023-02-13T11:06:55;100715.00;;;6.76;84.11
1077;BME280;64114;48.726;9.370;2023-02-13T11:09:24;100713.53;;;6.96;82.69
1077;BME280;64114;48.726;9.370;2023-02-13T11:11:52;100706.25;;;7.04;82.55
1077;BME280;64114;48.726;9.370;2023-02-13T11:14:21;100696.53;;;7.13;82.27
1077;BME280;64114;48.726;9.370;2023-02-13T11:16:53;100710.50;;;7.20;81.94
1077;BME280;64114;48.726;9.370;2023-02-13T11:19:29;100706.78;;;7.31;81.41
1077;BME280;64114;48.726;9.370;2023-02-13T11:22:00;100704.91;;;7.27;81.17
1077;BME280;64114;48.726;9.370;2023-02-13T11:24:30;100707.72;;;7.33;80.54
1077;BME280;64114;48.726;9.370;2023-02-13T11:27:01;100700.00;;;7.48;80.18
1077;BME280;64114;48.726;9.370;2023-02-13T11:29:32;100699.34;;;7.52;79.09
1077;BME280;64114;48.726;9.370;2023-02-13T11:32:16;100691.53;;;7.49;79.03
1077;BME280;64114;48.726;9.370;2023-02-13T11:34:47;100662.81;;;7.53;78.40
1077;BME280;64114;48.726;9.370;2023-02-13T11:37:20;100691.19;;;7.78;77.46
1077;BME280;64114;48.726;9.370;2023-02-13T11:39:49;100681.28;;;7.66;78.33
1077;BME280;64114;48.726;9.370;2023-02-13T11:42:20;100698.66;;;7.91;77.89
1077;BME280;64114;48.726;9.370;2023-02-13T11:44:53;100667.06;;;7.89;77.10
1077;BME280;64114;48.726;9.370;2023-02-13T11:47:37;100684.03;;;8.05;76.83
1077;BME280;64114;48.726;9.370;2023-02-13T11:50:19;100691.53;;;8.20;77.08
1077;BME280;64114;48.726;9.370;2023-02-13T11:52:54;100695.47;;;8.31;75.36
1077;BME280;64114;48.726;9.370;2023-02-13T11:55:25;100691.66;;;8.41;75.52
1077;BME280;64114;48.726;9.370;2023-02-13T11:57:58;100679.03;;;8.44;75.59
1077;BME280;64114;48.726;9.370;2023-02-13T12:00:33;100696.19;;;8.67;74.89
1077;BME280;64114;48.726;9.370;2023-02-13T12:04:46;100686.38;;;8.76;74.19
1077;BME280;64114;48.726;9.370;2023-02-13T12:24:31;100652.69;;;9.47;71.66
1077;BME280;64114;48.726;9.370;2023-02-13T12:27:12;100659.00;;;9.55;71.47
1077;BME280;64114;48.726;9.370;2023-02-13T12:33:07;100664.13;;;9.76;70.45
1077;BME280;64114;48.726;9.370;2023-02-13T12:35:50;100651.50;;;9.81;70.67
1077;BME280;64114;48.726;9.370;2023-02-13T12:38:33;100658.00;;;9.94;69.26
1077;BME280;64114;48.726;9.370;2023-02-13T12:41:17;100661.38;;;9.93;69.56
1077;BME280;64114;48.726;9.370;2023-02-13T12:44:11;100651.31;;;9.99;68.55
1077;BME280;64114;48.726;9.370;2023-02-13T12:46:51;100617.56;;;9.87;68.86
1077;BME280;64114;48.726;9.370;2023-02-13T12:49:40;100642.56;;;10.15;68.29
1077;BME280;64114;48.726;9.370;2023-02-13T12:52:21;100652.09;;;10.19;67.50
1077;BME280;64114;48.726;9.370;2023-02-13T12:55:05;100636.88;;;10.24;67.78
1077;BME280;64114;48.726;9.370;2023-02-13T12:57:53;100648.75;;;10.45;66.99
1077;BME280;64114;48.726;9.370;2023-02-13T13:00:31;100646.53;;;10.52;66.78
1077;BME280;64114;48.726;9.370;2023-02-13T13:03:22;100624.41;;;10.56;66.46
1077;BME280;64114;48.726;9.370;2023-02-13T13:06:03;100642.31;;;10.79;66.42
1077;BME280;64114;48.726;9.370;2023-02-13T13:08:57;100633.41;;;10.93;66.25
1077;BME280;64114;48.726;9.370;2023-02-13T13:11:50;100636.06;;;10.95;65.86
1077;BME280;64114;48.726;9.370;2023-02-13T13:14:28;100628.50;;;11.00;65.19
1077;BME280;64114;48.726;9.370;2023-02-13T13:17:17;100628.56;;;11.01;64.80
1077;BME280;64114;48.726;9.370;2023-02-13T13:19:57;100621.13;;;11.09;64.88
1077;BME280;64114;48.726;9.370;2023-02-13T13:22:29;100610.91;;;11.10;64.89
1077;BME280;64114;48.726;9.370;2023-02-13T13:25:04;100621.28;;;11.13;64.75
1077;BME280;64114;48.726;9.370;2023-02-13T13:27:40;100627.72;;;11.28;64.60
1077;BME280;64114;48.726;9.370;2023-02-13T13:30:17;100619.03;;;11.23;64.01
1077;BME280;64114;48.726;9.370;2023-02-13T13:32:52;100619.16;;;11.27;64.07
1077;BME280;64114;48.726;9.370;2023-02-13T13:35:22;100615.09;;;11.34;64.34
1077;BME280;64114;48.726;9.370;2023-02-13T13:37:54;100619.38;;;11.34;63.82
1077;BME280;64114;48.726;9.370;2023-02-13T13:40:37;100624.06;;;11.73;71.83
1077;BME280;64114;48.726;9.370;2023-02-13T13:43:16;100614.47;;;12.25;63.60
1077;BME280;64114;48.726;9.370;2023-02-13T13:45:48;100612.25;;;12.38;61.25
1077;BME280;64114;48.726;9.370;2023-02-13T13:48:37;100590.50;;;12.26;60.89
1077;BME280;64114;48.726;9.370;2023-02-13T13:51:13;100615.75;;;12.40;60.83
1077;BME280;64114;48.726;9.370;2023-02-13T13:54:17;100602.34;;;12.50;60.56
1077;BME280;64114;48.726;9.370;2023-02-13T13:57:10;100608.38;;;12.51;60.35
1077;BME280;64114;48.726;9.370;2023-02-13T14:03:22;100609.22;;;12.51;59.08